sensor_id;sensor_type;location;lat;lon;timestamp;P1;durP1;ratioP1;P2;durP2;ratioP2
50569;SDS011;36525;49.398;7.614;2023-02-15T00:00:05;321.08;;;32.70;;
50569;SDS011;36525;49.398;7.614;2023-02-15T00:02:37;535.05;;;44.63;;
50569;SDS011;36525;49.398;7.614;2023-02-15T00:05:05;558.58;;;48.20;;
50569;SDS011;36525;49.398;7.614;2023-02-15T00:07:33;340.27;;;34.47;;
50569;SDS011;36525;49.398;7.614;2023-02-15T00:10:00;296.60;;;34.95;;
50569;SDS011;36525;49.398;7.614;2023-02-15T00:12:27;196.10;;;30.48;;
50569;SDS011;36525;49.398;7.614;2023-02-15T00:14:54;544.20;;;46.03;;
50569;SDS011;36525;49.398;7.614;2023-02-15T00:17:21;360.85;;;36.92;;
50569;SDS011;36525;49.398;7.614;2023-02-15T00:19:48;208.73;;;27.63;;
50569;SDS011;36525;49.398;7.614;2023-02-15T00:22:15;135.55;;;27.42;;
50569;SDS011;36525;49.398;7.614;2023-02-15T00:24:42;159.38;;;27.20;;
50569;SDS011;36525;49.398;7.614;2023-02-15T00:27:09;180.00;;;28.05;;
50569;SDS011;36525;49.398;7.614;2023-02-15T00:29:36;120.95;;;23.85;;
50569;SDS011;36525;49.398;7.614;2023-02-15T00:32:06;157.93;;;31.48;;
50569;SDS011;36525;49.398;7.614;2023-02-15T00:34:33;340.63;;;30.73;;
50569;SDS011;36525;49.398;7.614;2023-02-15T00:37:00;262.75;;;30.83;;
50569;SDS011;36525;49.398;7.614;2023-02-15T00:39:27;315.20;;;32.58;;
50569;SDS011;36525;49.398;7.614;2023-02-15T00:41:55;234.10;;;27.65;;
50569;SDS011;36525;49.398;7.614;2023-02-15T00:44:22;165.18;;;28.27;;
50569;SDS011;36525;49.398;7.614;2023-02-15T00:46:49;138.73;;;26.05;;
50569;SDS011;36525;49.398;7.614;2023-02-15T00:49:15;342.08;;;33.72;;
50569;SDS011;36525;49.398;7.614;2023-02-15T00:51:42;467.10;;;40.08;;
50569;SDS011;36525;49.398;7.614;2023-02-15T00:54:09;356.00;;;35.55;;
50569;SDS011;36525;49.398;7.614;2023-02-15T00:56:36;422.38;;;36.10;;
50569;SDS011;36525;49.398;7.614;2023-02-15T00:59:03;329.90;;;33.47;;
50569;SDS011;36525;49.398;7.614;2023-02-15T01:01:30;130.77;;;25.17;;
50569;SDS011;36525;49.398;7.614;2023-02-15T01:03:58;416.75;;;36.80;;
50569;SDS011;36525;49.398;7.614;2023-02-15T01:06:25;452.58;;;38.30;;
50569;SDS011;36525;49.398;7.614;2023-02-15T01:08:52;172.90;;;28.17;;
50569;SDS011;36525;49.398;7.614;2023-02-15T01:11:21;236.82;;;31.88;;
50569;SDS011;36525;49.398;7.614;2023-02-15T01:13:49;370.95;;;35.47;;
50569;SDS011;36525;49.398;7.614;2023-02-15T01:16:20;98.55;;;22.35;;
50569;SDS011;36525;49.398;7.614;2023-02-15T01:18:48;101.57;;;23.52;;
50569;SDS011;36525;49.398;7.614;2023-02-15T01:21:16;235.95;;;31.60;;
50569;SDS011;36525;49.398;7.614;2023-02-15T01:23:46;395.92;;;37.38;;
50569;SDS011;36525;49.398;7.614;2023-02-15T01:26:14;216.18;;;29.05;;
50569;SDS011;36525;49.398;7.614;2023-02-15T01:28:41;354.48;;;30.77;;
50569;SDS011;36525;49.398;7.614;2023-02-15T01:31:10;500.13;;;43.50;;
50569;SDS011;36525;49.398;7.614;2023-02-15T01:33:40;352.50;;;36.40;;
50569;SDS011;36525;49.398;7.614;2023-02-15T01:36:08;571.90;;;41.92;;
50569;SDS011;36525;49.398;7.614;2023-02-15T01:38:35;338.73;;;31.52;;
50569;SDS011;36525;49.398;7.614;2023-02-15T01:41:03;201.75;;;28.30;;
50569;SDS011;36525;49.398;7.614;2023-02-15T01:43:58;126.22;;;23.38;;
50569;SDS011;36525;49.398;7.614;2023-02-15T01:46:32;128.85;;;24.90;;
50569;SDS011;36525;49.398;7.614;2023-02-15T01:49:07;439.75;;;34.33;;
50569;SDS011;36525;49.398;7.614;2023-02-15T01:51:39;180.73;;;23.80;;
50569;SDS011;36525;49.398;7.614;2023-02-15T01:54:15;194.23;;;25.10;;
50569;SDS011;36525;49.398;7.614;2023-02-15T01:56:52;112.45;;;23.45;;
50569;SDS011;36525;49.398;7.614;2023-02-15T01:59:22;212.73;;;26.33;;
50569;SDS011;36525;49.398;7.614;2023-02-15T02:01:52;354.20;;;33.00;;
50569;SDS011;36525;49.398;7.614;2023-02-15T02:04:31;135.75;;;24.20;;
50569;SDS011;36525;49.398;7.614;2023-02-15T02:07:08;515.55;;;39.95;;
50569;SDS011;36525;49.398;7.614;2023-02-15T02:09:36;100.00;;;20.52;;
50569;SDS011;36525;49.398;7.614;2023-02-15T02:12:03;414.20;;;31.48;;
50569;SDS011;36525;49.398;7.614;2023-02-15T02:14:31;502.08;;;42.70;;
50569;SDS011;36525;49.398;7.614;2023-02-15T02:17:01;530.65;;;41.13;;
50569;SDS011;36525;49.398;7.614;2023-02-15T02:31:11;507.77;;;39.08;;
50569;SDS011;36525;49.398;7.614;2023-02-15T02:34:33;124.30;;;21.08;;
50569;SDS011;36525;49.398;7.614;2023-02-15T02:48:33;345.13;;;33.03;;
50569;SDS011;36525;49.398;7.614;2023-02-15T02:51:01;285.17;;;30.85;;
50569;SDS011;36525;49.398;7.614;2023-02-15T02:53:29;448.67;;;32.97;;
50569;SDS011;36525;49.398;7.614;2023-02-15T02:56:17;355.25;;;31.73;;
50569;SDS011;36525;49.398;7.614;2023-02-15T02:59:09;135.23;;;21.27;;
50569;SDS011;36525;49.398;7.614;2023-02-15T03:01:48;223.75;;;24.30;;
50569;SDS011;36525;49.398;7.614;2023-02-15T03:04:23;514.00;;;37.08;;
50569;SDS011;36525;49.398;7.614;2023-02-15T03:07:02;543.67;;;39.35;;
50569;SDS011;36525;49.398;7.614;2023-02-15T03:09:38;130.25;;;23.08;;
50569;SDS011;36525;49.398;7.614;2023-02-15T03:14:48;117.90;;;20.92;;
50569;SDS011;36525;49.398;7.614;2023-02-15T03:17:31;171.77;;;22.95;;
50569;SDS011;36525;49.398;7.614;2023-02-15T03:20:04;26.77;;;16.27;;
50569;SDS011;36525;49.398;7.614;2023-02-15T03:22:38;49.38;;;16.77;;
50569;SDS011;36525;49.398;7.614;2023-02-15T03:27:52;71.55;;;14.98;;
50569;SDS011;36525;49.398;7.614;2023-02-15T03:30:24;164.30;;;18.55;;
50569;SDS011;36525;49.398;7.614;2023-02-15T03:32:57;64.45;;;19.02;;
50569;SDS011;36525;49.398;7.614;2023-02-15T03:35:27;67.90;;;19.65;;
50569;SDS011;36525;49.398;7.614;2023-02-15T03:38:14;190.13;;;23.05;;
50569;SDS011;36525;49.398;7.614;2023-02-15T03:40:46;62.88;;;17.67;;
50569;SDS011;36525;49.398;7.614;2023-02-15T03:46:28;51.08;;;16.42;;
50569;SDS011;36525;49.398;7.614;2023-02-15T03:49:11;52.55;;;16.02;;
50569;SDS011;36525;49.398;7.614;2023-02-15T03:51:53;48.38;;;15.90;;
50569;SDS011;36525;49.398;7.614;2023-02-15T03:54:25;66.15;;;16.58;;
50569;SDS011;36525;49.398;7.614;2023-02-15T03:57:17;80.85;;;18.10;;
50569;SDS011;36525;49.398;7.614;2023-02-15T04:00:15;200.10;;;21.25;;
50569;SDS011;36525;49.398;7.614;2023-02-15T04:05:42;59.53;;;15.50;;
50569;SDS011;36525;49.398;7.614;2023-02-15T04:08:11;104.00;;;19.98;;
50569;SDS011;36525;49.398;7.614;2023-02-15T04:10:39;126.80;;;20.50;;
50569;SDS011;36525;49.398;7.614;2023-02-15T04:13:19;47.20;;;15.15;;
50569;SDS011;36525;49.398;7.614;2023-02-15T04:15:49;135.63;;;17.70;;
50569;SDS011;36525;49.398;7.614;2023-02-15T04:18:31;265.52;;;24.38;;
50569;SDS011;36525;49.398;7.614;2023-02-15T04:21:26;32.72;;;14.93;;
50569;SDS011;36525;49.398;7.614;2023-02-15T04:24:16;323.15;;;27.50;;
50569;SDS011;36525;49.398;7.614;2023-02-15T04:27:02;69.80;;;14.43;;
50569;SDS011;36525;49.398;7.614;2023-02-15T04:29:30;34.75;;;15.68;;
50569;SDS011;36525;49.398;7.614;2023-02-15T04:31:59;33.13;;;15.10;;
50569;SDS011;36525;49.398;7.614;2023-02-15T04:34:27;36.70;;;16.05;;
50569;SDS011;36525;49.398;7.614;2023-02-15T04:36:54;30.30;;;14.38;;
50569;SDS011;36525;49.398;7.614;2023-02-15T04:39:21;25.98;;;14.05;;
50569;SDS011;36525;49.398;7.614;2023-02-15T04:41:48;50.25;;;15.70;;
50569;SDS011;36525;49.398;7.614;2023-02-15T04:44:16;115.40;;;19.20;;
50569;SDS011;36525;49.398;7.614;2023-02-15T04:46:43;200.43;;;25.20;;
50569;SDS011;36525;49.398;7.614;2023-02-15T04:49:10;242.27;;;25.42;;
50569;SDS011;36525;49.398;7.614;2023-02-15T04:51:37;269.65;;;28.38;;
50569;SDS011;36525;49.398;7.614;2023-02-15T04:54:04;203.35;;;21.83;;
50569;SDS011;36525;49.398;7.614;2023-02-15T04:56:31;124.88;;;20.45;;
50569;SDS011;36525;49.398;7.614;2023-02-15T04:59:01;190.80;;;24.60;;
50569;SDS011;36525;49.398;7.614;2023-02-15T05:01:28;221.88;;;25.50;;
50569;SDS011;36525;49.398;7.614;2023-02-15T05:03:55;126.53;;;22.27;;
50569;SDS011;36525;49.398;7.614;2023-02-15T05:06:23;78.45;;;19.27;;
50569;SDS011;36525;49.398;7.614;2023-02-15T05:08:49;486.70;;;38.05;;
50569;SDS011;36525;49.398;7.614;2023-02-15T05:11:17;180.45;;;22.10;;
50569;SDS011;36525;49.398;7.614;2023-02-15T05:13:44;389.92;;;32.03;;
50569;SDS011;36525;49.398;7.614;2023-02-15T05:16:10;317.15;;;28.13;;
50569;SDS011;36525;49.398;7.614;2023-02-15T05:18:37;233.45;;;25.25;;
50569;SDS011;36525;49.398;7.614;2023-02-15T05:21:04;38.97;;;16.85;;
50569;SDS011;36525;49.398;7.614;2023-02-15T05:23:31;192.90;;;23.98;;
50569;SDS011;36525;49.398;7.614;2023-02-15T05:25:58;59.50;;;17.10;;
50569;SDS011;36525;49.398;7.614;2023-02-15T05:28:44;346.13;;;29.85;;
50569;SDS011;36525;49.398;7.614;2023-02-15T05:31:15;212.50;;;25.17;;
50569;SDS011;36525;49.398;7.614;2023-02-15T05:33:45;89.25;;;18.92;;
50569;SDS011;36525;49.398;7.614;2023-02-15T05:36:13;218.30;;;24.10;;
50569;SDS011;36525;49.398;7.614;2023-02-15T05:38:40;188.40;;;22.83;;
50569;SDS011;36525;49.398;7.614;2023-02-15T05:41:07;150.90;;;19.73;;
50569;SDS011;36525;49.398;7.614;2023-02-15T05:43:36;28.65;;;16.38;;
50569;SDS011;36525;49.398;7.614;2023-02-15T05:46:04;424.00;;;45.22;;
50569;SDS011;36525;49.398;7.614;2023-02-15T05:48:32;415.58;;;73.15;;
50569;SDS011;36525;49.398;7.614;2023-02-15T05:51:04;406.13;;;43.72;;
50569;SDS011;36525;49.398;7.614;2023-02-15T05:53:32;263.50;;;62.63;;
50569;SDS011;36525;49.398;7.614;2023-02-15T05:56:03;403.42;;;65.68;;
50569;SDS011;36525;49.398;7.614;2023-02-15T05:58:32;346.45;;;42.80;;
50569;SDS011;36525;49.398;7.614;2023-02-15T06:01:08;120.25;;;22.33;;
50569;SDS011;36525;49.398;7.614;2023-02-15T06:03:38;36.75;;;15.60;;
50569;SDS011;36525;49.398;7.614;2023-02-15T06:06:05;47.60;;;15.27;;
50569;SDS011;36525;49.398;7.614;2023-02-15T06:08:33;161.88;;;22.58;;
50569;SDS011;36525;49.398;7.614;2023-02-15T06:11:02;76.65;;;19.33;;
50569;SDS011;36525;49.398;7.614;2023-02-15T06:13:30;108.32;;;20.45;;
50569;SDS011;36525;49.398;7.614;2023-02-15T06:15:57;77.60;;;18.00;;
50569;SDS011;36525;49.398;7.614;2023-02-15T06:18:26;43.83;;;14.98;;
50569;SDS011;36525;49.398;7.614;2023-02-15T06:20:52;78.05;;;18.23;;
50569;SDS011;36525;49.398;7.614;2023-02-15T06:23:19;26.92;;;14.55;;
50569;SDS011;36525;49.398;7.614;2023-02-15T06:25:47;54.75;;;15.90;;
50569;SDS011;36525;49.398;7.614;2023-02-15T06:28:14;186.15;;;22.92;;
50569;SDS011;36525;49.398;7.614;2023-02-15T06:30:41;82.72;;;18.10;;
50569;SDS011;36525;49.398;7.614;2023-02-15T06:33:08;92.55;;;18.27;;
50569;SDS011;36525;49.398;7.614;2023-02-15T06:35:35;94.38;;;17.90;;
50569;SDS011;36525;49.398;7.614;2023-02-15T06:38:02;173.75;;;18.80;;
50569;SDS011;36525;49.398;7.614;2023-02-15T06:40:30;74.38;;;16.52;;
50569;SDS011;36525;49.398;7.614;2023-02-15T06:42:57;55.28;;;14.73;;
50569;SDS011;36525;49.398;7.614;2023-02-15T06:45:24;63.30;;;15.40;;
50569;SDS011;36525;49.398;7.614;2023-02-15T06:47:51;94.75;;;17.77;;
50569;SDS011;36525;49.398;7.614;2023-02-15T06:50:18;63.85;;;15.18;;
50569;SDS011;36525;49.398;7.614;2023-02-15T06:52:45;51.42;;;16.98;;
50569;SDS011;36525;49.398;7.614;2023-02-15T06:55:12;112.20;;;22.30;;
50569;SDS011;36525;49.398;7.614;2023-02-15T06:57:39;76.75;;;19.02;;
50569;SDS011;36525;49.398;7.614;2023-02-15T07:00:07;122.13;;;25.08;;
50569;SDS011;36525;49.398;7.614;2023-02-15T07:02:34;150.52;;;22.30;;
50569;SDS011;36525;49.398;7.614;2023-02-15T07:05:01;65.05;;;18.98;;
50569;SDS011;36525;49.398;7.614;2023-02-15T07:07:31;142.77;;;24.05;;
50569;SDS011;36525;49.398;7.614;2023-02-15T07:09:59;85.57;;;22.55;;
50569;SDS011;36525;49.398;7.614;2023-02-15T07:12:26;135.00;;;26.67;;
50569;SDS011;36525;49.398;7.614;2023-02-15T07:15:09;110.18;;;24.42;;
50569;SDS011;36525;49.398;7.614;2023-02-15T07:17:39;100.80;;;22.63;;
50569;SDS011;36525;49.398;7.614;2023-02-15T07:20:09;205.10;;;27.00;;
50569;SDS011;36525;49.398;7.614;2023-02-15T07:22:42;154.77;;;25.92;;
50569;SDS011;36525;49.398;7.614;2023-02-15T07:25:10;112.30;;;20.15;;
50569;SDS011;36525;49.398;7.614;2023-02-15T07:27:39;255.68;;;32.65;;
50569;SDS011;36525;49.398;7.614;2023-02-15T07:30:07;151.02;;;22.98;;
50569;SDS011;36525;49.398;7.614;2023-02-15T07:32:36;100.88;;;20.48;;
50569;SDS011;36525;49.398;7.614;2023-02-15T07:35:24;59.67;;;19.65;;
50569;SDS011;36525;49.398;7.614;2023-02-15T07:37:52;259.35;;;30.27;;
50569;SDS011;36525;49.398;7.614;2023-02-15T07:40:20;278.25;;;31.08;;
50569;SDS011;36525;49.398;7.614;2023-02-15T07:42:49;320.42;;;34.67;;
50569;SDS011;36525;49.398;7.614;2023-02-15T07:45:21;268.95;;;38.60;;
50569;SDS011;36525;49.398;7.614;2023-02-15T07:47:48;254.50;;;38.40;;
50569;SDS011;36525;49.398;7.614;2023-02-15T07:50:16;106.30;;;25.25;;
50569;SDS011;36525;49.398;7.614;2023-02-15T07:52:44;69.75;;;20.85;;
50569;SDS011;36525;49.398;7.614;2023-02-15T07:55:11;132.23;;;23.95;;
50569;SDS011;36525;49.398;7.614;2023-02-15T07:57:42;221.88;;;25.02;;
50569;SDS011;36525;49.398;7.614;2023-02-15T08:00:11;181.07;;;25.42;;
50569;SDS011;36525;49.398;7.614;2023-02-15T08:02:40;42.15;;;18.00;;
50569;SDS011;36525;49.398;7.614;2023-02-15T08:05:08;79.15;;;19.65;;
50569;SDS011;36525;49.398;7.614;2023-02-15T08:07:35;80.55;;;20.27;;
50569;SDS011;36525;49.398;7.614;2023-02-15T08:10:02;82.75;;;21.70;;
50569;SDS011;36525;49.398;7.614;2023-02-15T08:12:29;114.40;;;23.27;;
50569;SDS011;36525;49.398;7.614;2023-02-15T08:14:56;190.93;;;29.25;;
50569;SDS011;36525;49.398;7.614;2023-02-15T08:17:23;96.97;;;22.15;;
50569;SDS011;36525;49.398;7.614;2023-02-15T08:19:50;69.60;;;20.88;;
50569;SDS011;36525;49.398;7.614;2023-02-15T08:22:17;127.40;;;21.17;;
50569;SDS011;36525;49.398;7.614;2023-02-15T08:24:44;83.35;;;21.55;;
50569;SDS011;36525;49.398;7.614;2023-02-15T08:27:12;193.27;;;27.35;;
50569;SDS011;36525;49.398;7.614;2023-02-15T08:29:39;123.00;;;23.35;;
50569;SDS011;36525;49.398;7.614;2023-02-15T08:32:09;146.57;;;23.42;;
50569;SDS011;36525;49.398;7.614;2023-02-15T08:34:39;304.63;;;33.90;;
50569;SDS011;36525;49.398;7.614;2023-02-15T08:37:08;195.05;;;29.13;;
50569;SDS011;36525;49.398;7.614;2023-02-15T08:39:35;137.07;;;26.08;;
50569;SDS011;36525;49.398;7.614;2023-02-15T08:42:03;175.75;;;27.85;;
50569;SDS011;36525;49.398;7.614;2023-02-15T08:44:30;43.80;;;19.48;;
50569;SDS011;36525;49.398;7.614;2023-02-15T08:46:57;64.82;;;20.98;;
50569;SDS011;36525;49.398;7.614;2023-02-15T08:49:30;57.92;;;22.67;;
50569;SDS011;36525;49.398;7.614;2023-02-15T08:51:57;51.85;;;20.77;;
50569;SDS011;36525;49.398;7.614;2023-02-15T08:54:26;245.38;;;29.70;;
50569;SDS011;36525;49.398;7.614;2023-02-15T08:56:53;159.35;;;25.63;;
50569;SDS011;36525;49.398;7.614;2023-02-15T08:59:20;140.75;;;29.27;;
50569;SDS011;36525;49.398;7.614;2023-02-15T09:01:50;65.95;;;21.38;;
50569;SDS011;36525;49.398;7.614;2023-02-15T09:04:18;52.90;;;19.33;;
50569;SDS011;36525;49.398;7.614;2023-02-15T09:06:47;43.05;;;19.75;;
50569;SDS011;36525;49.398;7.614;2023-02-15T09:09:16;77.95;;;21.50;;
50569;SDS011;36525;49.398;7.614;2023-02-15T09:11:46;106.80;;;26.67;;
50569;SDS011;36525;49.398;7.614;2023-02-15T09:14:21;52.28;;;21.73;;
50569;SDS011;36525;49.398;7.614;2023-02-15T09:16:51;44.47;;;19.27;;
50569;SDS011;36525;49.398;7.614;2023-02-15T09:19:20;47.58;;;19.75;;
50569;SDS011;36525;49.398;7.614;2023-02-15T09:21:51;34.25;;;19.70;;
50569;SDS011;36525;49.398;7.614;2023-02-15T09:24:18;42.50;;;20.15;;
50569;SDS011;36525;49.398;7.614;2023-02-15T09:26:46;50.55;;;21.05;;
50569;SDS011;36525;49.398;7.614;2023-02-15T09:29:15;28.50;;;18.75;;
50569;SDS011;36525;49.398;7.614;2023-02-15T09:31:44;41.10;;;19.33;;
50569;SDS011;36525;49.398;7.614;2023-02-15T09:34:16;33.90;;;19.90;;
50569;SDS011;36525;49.398;7.614;2023-02-15T09:36:45;34.30;;;18.05;;
50569;SDS011;36525;49.398;7.614;2023-02-15T09:39:17;31.48;;;19.45;;
50569;SDS011;36525;49.398;7.614;2023-02-15T09:45:13;43.35;;;23.50;;
50569;SDS011;36525;49.398;7.614;2023-02-15T09:54:15;36.28;;;17.88;;
50569;SDS011;36525;49.398;7.614;2023-02-15T09:57:06;26.33;;;17.15;;
50569;SDS011;36525;49.398;7.614;2023-02-15T10:05:34;30.80;;;19.50;;
50569;SDS011;36525;49.398;7.614;2023-02-15T10:09:00;40.95;;;21.02;;
50569;SDS011;36525;49.398;7.614;2023-02-15T10:20:28;33.67;;;22.90;;
50569;SDS011;36525;49.398;7.614;2023-02-15T10:26:50;34.42;;;23.13;;
50569;SDS011;36525;49.398;7.614;2023-02-15T10:29:37;29.85;;;19.48;;
50569;SDS011;36525;49.398;7.614;2023-02-15T10:32:23;28.50;;;20.58;;
50569;SDS011;36525;49.398;7.614;2023-02-15T10:35:00;31.17;;;20.70;;
50569;SDS011;36525;49.398;7.614;2023-02-15T10:44:09;27.42;;;18.27;;
50569;SDS011;36525;49.398;7.614;2023-02-15T10:52:38;33.17;;;22.23;;
50569;SDS011;36525;49.398;7.614;2023-02-15T11:06:17;33.80;;;20.98;;
50569;SDS011;36525;49.398;7.614;2023-02-15T11:08:49;33.53;;;22.77;;
50569;SDS011;36525;49.398;7.614;2023-02-15T11:11:24;34.47;;;22.35;;
50569;SDS011;36525;49.398;7.614;2023-02-15T11:14:10;32.08;;;21.35;;
50569;SDS011;36525;49.398;7.614;2023-02-15T11:17:25;37.08;;;22.25;;
50569;SDS011;36525;49.398;7.614;2023-02-15T11:20:16;34.80;;;21.77;;
50569;SDS011;36525;49.398;7.614;2023-02-15T11:25:52;34.42;;;21.65;;
50569;SDS011;36525;49.398;7.614;2023-02-15T11:28:33;32.30;;;21.08;;
50569;SDS011;36525;49.398;7.614;2023-02-15T11:31:13;30.05;;;20.27;;
50569;SDS011;36525;49.398;7.614;2023-02-15T11:33:52;33.85;;;21.40;;
50569;SDS011;36525;49.398;7.614;2023-02-15T11:36:31;33.95;;;22.77;;
50569;SDS011;36525;49.398;7.614;2023-02-15T11:39:05;32.67;;;22.77;;
50569;SDS011;36525;49.398;7.614;2023-02-15T11:41:38;34.08;;;22.88;;
50569;SDS011;36525;49.398;7.614;2023-02-15T11:44:17;31.77;;;21.75;;
50569;SDS011;36525;49.398;7.614;2023-02-15T11:46:52;33.03;;;22.52;;
50569;SDS011;36525;49.398;7.614;2023-02-15T11:52:07;32.63;;;23.08;;
50569;SDS011;36525;49.398;7.614;2023-02-15T11:54:42;31.55;;;21.58;;
50569;SDS011;36525;49.398;7.614;2023-02-15T12:00:02;31.05;;;21.05;;
50569;SDS011;36525;49.398;7.614;2023-02-15T12:02:42;31.00;;;21.95;;
50569;SDS011;36525;49.398;7.614;2023-02-15T12:05:17;33.42;;;22.63;;
50569;SDS011;36525;49.398;7.614;2023-02-15T12:07:50;34.15;;;23.23;;
50569;SDS011;36525;49.398;7.614;2023-02-15T12:13:08;32.92;;;21.75;;
50569;SDS011;36525;49.398;7.614;2023-02-15T12:15:44;31.05;;;22.25;;
50569;SDS011;36525;49.398;7.614;2023-02-15T12:21:15;32.55;;;20.98;;
50569;SDS011;36525;49.398;7.614;2023-02-15T12:23:57;28.30;;;20.55;;
50569;SDS011;36525;49.398;7.614;2023-02-15T12:26:31;28.83;;;20.52;;
50569;SDS011;36525;49.398;7.614;2023-02-15T12:29:01;30.85;;;20.85;;
50569;SDS011;36525;49.398;7.614;2023-02-15T12:31:42;29.83;;;21.73;;
50569;SDS011;36525;49.398;7.614;2023-02-15T12:36:49;29.25;;;19.90;;
50569;SDS011;36525;49.398;7.614;2023-02-15T12:39:27;27.77;;;18.15;;
50569;SDS011;36525;49.398;7.614;2023-02-15T12:41:59;24.67;;;16.73;;
50569;SDS011;36525;49.398;7.614;2023-02-15T12:44:52;26.75;;;17.48;;
50569;SDS011;36525;49.398;7.614;2023-02-15T12:47:28;28.52;;;18.33;;
50569;SDS011;36525;49.398;7.614;2023-02-15T12:50:08;26.98;;;19.15;;
50569;SDS011;36525;49.398;7.614;2023-02-15T12:52:50;25.30;;;17.77;;
50569;SDS011;36525;49.398;7.614;2023-02-15T12:55:32;23.80;;;17.23;;
50569;SDS011;36525;49.398;7.614;2023-02-15T13:00:34;25.70;;;17.25;;
50569;SDS011;36525;49.398;7.614;2023-02-15T13:03:01;25.63;;;17.23;;
50569;SDS011;36525;49.398;7.614;2023-02-15T13:05:31;26.20;;;17.40;;
50569;SDS011;36525;49.398;7.614;2023-02-15T13:08:11;27.08;;;16.90;;
50569;SDS011;36525;49.398;7.614;2023-02-15T13:10:54;23.40;;;16.02;;
50569;SDS011;36525;49.398;7.614;2023-02-15T13:13:30;23.38;;;16.95;;
50569;SDS011;36525;49.398;7.614;2023-02-15T13:16:02;25.17;;;16.48;;
50569;SDS011;36525;49.398;7.614;2023-02-15T13:18:37;27.80;;;17.25;;
50569;SDS011;36525;49.398;7.614;2023-02-15T13:21:13;23.85;;;17.38;;
50569;SDS011;36525;49.398;7.614;2023-02-15T13:26:39;22.17;;;16.25;;
50569;SDS011;36525;49.398;7.614;2023-02-15T13:31:54;29.25;;;17.17;;
50569;SDS011;36525;49.398;7.614;2023-02-15T13:34:28;26.48;;;16.23;;
50569;SDS011;36525;49.398;7.614;2023-02-15T13:37:08;23.35;;;15.90;;
50569;SDS011;36525;49.398;7.614;2023-02-15T13:49:09;20.23;;;13.95;;
50569;SDS011;36525;49.398;7.614;2023-02-15T13:51:35;21.13;;;13.27;;
50569;SDS011;36525;49.398;7.614;2023-02-15T13:54:32;18.27;;;12.13;;
50569;SDS011;36525;49.398;7.614;2023-02-15T13:57:52;24.70;;;13.38;;
50569;SDS011;36525;49.398;7.614;2023-02-15T14:08:59;21.88;;;14.52;;
50569;SDS011;36525;49.398;7.614;2023-02-15T14:21:08;22.10;;;13.40;;
50569;SDS011;36525;49.398;7.614;2023-02-15T14:24:12;19.40;;;13.13;;
50569;SDS011;36525;49.398;7.614;2023-02-15T14:30:20;22.15;;;14.65;;
50569;SDS011;36525;49.398;7.614;2023-02-15T14:32:59;20.85;;;14.63;;
50569;SDS011;36525;49.398;7.614;2023-02-15T14:36:07;21.42;;;13.63;;
50569;SDS011;36525;49.398;7.614;2023-02-15T14:41:23;20.20;;;14.05;;
50569;SDS011;36525;49.398;7.614;2023-02-15T14:47:18;20.10;;;13.85;;
50569;SDS011;36525;49.398;7.614;2023-02-15T14:53:16;18.20;;;12.73;;
50569;SDS011;36525;49.398;7.614;2023-02-15T15:01:32;22.05;;;13.95;;
50569;SDS011;36525;49.398;7.614;2023-02-15T15:06:32;21.50;;;13.73;;
50569;SDS011;36525;49.398;7.614;2023-02-15T15:11:47;22.50;;;14.60;;
50569;SDS011;36525;49.398;7.614;2023-02-15T15:14:38;20.10;;;13.20;;
50569;SDS011;36525;49.398;7.614;2023-02-15T15:17:06;20.30;;;13.45;;
50569;SDS011;36525;49.398;7.614;2023-02-15T15:31:01;25.88;;;16.80;;
50569;SDS011;36525;49.398;7.614;2023-02-15T15:40:04;23.23;;;16.50;;
50569;SDS011;36525;49.398;7.614;2023-02-15T15:46:27;25.13;;;16.30;;
50569;SDS011;36525;49.398;7.614;2023-02-15T15:49:10;23.45;;;16.52;;
50569;SDS011;36525;49.398;7.614;2023-02-15T15:51:43;22.95;;;16.80;;
50569;SDS011;36525;49.398;7.614;2023-02-15T15:54:14;23.60;;;16.60;;
50569;SDS011;36525;49.398;7.614;2023-02-15T15:56:52;20.67;;;15.23;;
50569;SDS011;36525;49.398;7.614;2023-02-15T15:59:33;21.13;;;16.10;;
50569;SDS011;36525;49.398;7.614;2023-02-15T16:02:07;25.38;;;16.23;;
50569;SDS011;36525;49.398;7.614;2023-02-15T16:04:39;33.20;;;22.33;;
50569;SDS011;36525;49.398;7.614;2023-02-15T16:07:13;25.15;;;18.65;;
50569;SDS011;36525;49.398;7.614;2023-02-15T16:10:03;25.38;;;19.02;;
50569;SDS011;36525;49.398;7.614;2023-02-15T16:12:34;25.23;;;18.35;;
50569;SDS011;36525;49.398;7.614;2023-02-15T16:15:22;27.45;;;20.90;;
50569;SDS011;36525;49.398;7.614;2023-02-15T16:18:19;21.88;;;16.10;;
50569;SDS011;36525;49.398;7.614;2023-02-15T16:20:58;29.67;;;21.98;;
50569;SDS011;36525;49.398;7.614;2023-02-15T16:28:49;24.77;;;19.00;;
50569;SDS011;36525;49.398;7.614;2023-02-15T16:31:19;31.50;;;22.67;;
50569;SDS011;36525;49.398;7.614;2023-02-15T16:33:54;33.47;;;24.57;;
50569;SDS011;36525;49.398;7.614;2023-02-15T16:36:28;30.92;;;22.95;;
50569;SDS011;36525;49.398;7.614;2023-02-15T16:41:23;29.95;;;21.08;;
50569;SDS011;36525;49.398;7.614;2023-02-15T16:43:54;42.95;;;26.95;;
50569;SDS011;36525;49.398;7.614;2023-02-15T16:46:27;56.17;;;34.47;;
50569;SDS011;36525;49.398;7.614;2023-02-15T16:49:02;65.72;;;38.00;;
50569;SDS011;36525;49.398;7.614;2023-02-15T16:51:41;59.42;;;37.53;;
50569;SDS011;36525;49.398;7.614;2023-02-15T16:54:18;59.92;;;35.22;;
50569;SDS011;36525;49.398;7.614;2023-02-15T16:56:47;62.15;;;38.20;;
50569;SDS011;36525;49.398;7.614;2023-02-15T16:59:28;56.63;;;35.10;;
50569;SDS011;36525;49.398;7.614;2023-02-15T17:02:12;47.42;;;32.08;;
50569;SDS011;36525;49.398;7.614;2023-02-15T17:10:33;44.03;;;27.38;;
50569;SDS011;36525;49.398;7.614;2023-02-15T17:15:41;41.80;;;26.40;;
50569;SDS011;36525;49.398;7.614;2023-02-15T17:21:13;34.75;;;23.67;;
50569;SDS011;36525;49.398;7.614;2023-02-15T17:23:49;37.60;;;24.48;;
50569;SDS011;36525;49.398;7.614;2023-02-15T17:26:22;36.42;;;25.40;;
50569;SDS011;36525;49.398;7.614;2023-02-15T17:29:09;41.72;;;27.30;;
50569;SDS011;36525;49.398;7.614;2023-02-15T17:31:58;42.35;;;28.75;;
50569;SDS011;36525;49.398;7.614;2023-02-15T17:37:13;57.10;;;37.50;;
50569;SDS011;36525;49.398;7.614;2023-02-15T17:40:23;64.00;;;42.55;;
50569;SDS011;36525;49.398;7.614;2023-02-15T17:42:52;64.88;;;40.47;;
50569;SDS011;36525;49.398;7.614;2023-02-15T17:45:19;71.30;;;44.05;;
50569;SDS011;36525;49.398;7.614;2023-02-15T17:47:48;71.05;;;44.22;;
50569;SDS011;36525;49.398;7.614;2023-02-15T17:50:20;72.65;;;41.67;;
50569;SDS011;36525;49.398;7.614;2023-02-15T17:52:50;89.85;;;56.97;;
50569;SDS011;36525;49.398;7.614;2023-02-15T17:55:20;83.97;;;50.60;;
50569;SDS011;36525;49.398;7.614;2023-02-15T17:58:04;81.68;;;49.53;;
50569;SDS011;36525;49.398;7.614;2023-02-15T18:00:38;74.50;;;47.17;;
50569;SDS011;36525;49.398;7.614;2023-02-15T18:03:38;77.53;;;50.72;;
50569;SDS011;36525;49.398;7.614;2023-02-15T18:06:24;66.70;;;40.50;;
50569;SDS011;36525;49.398;7.614;2023-02-15T18:09:11;72.53;;;41.38;;
50569;SDS011;36525;49.398;7.614;2023-02-15T18:11:58;71.10;;;42.20;;
50569;SDS011;36525;49.398;7.614;2023-02-15T18:14:25;72.05;;;41.78;;
50569;SDS011;36525;49.398;7.614;2023-02-15T18:16:53;97.30;;;58.78;;